Time;durP1;ratioP1;P1;durP2;ratioP2;P2;SDS_P1;SDS_P2;PMS_P1;PMS_P2;Temp;Humidity;BMP_temperature;BMP_pressure;BME280_temperature;BME280_humidity;BME280_pressure;Samples;Min_cycle;Max_cycle;Signal;HPM_P1;HPM_P2
2023/08/18 00:02:20;;;;;;;6.03;4.38;;;21.00;99.90;;;;;;4996934;28;20023;-66
2023/08/18 00:04:46;;;;;;;6.75;3.88;;;21.00;99.90;;;;;;4997694;28;20022;-66
2023/08/18 00:07:11;;;;;;;5.50;4.22;;;21.00;99.90;;;;;;5012944;28;20038;-66
2023/08/18 00:09:37;;;;;;;7.13;4.35;;;20.90;99.90;;;;;;5012929;28;20026;-66
2023/08/18 00:12:05;;;;;;;4.72;4.03;;;20.90;99.90;;;;;;5013453;28;20022;-66
2023/08/18 00:14:31;;;;;;;7.05;4.28;;;20.90;99.90;;;;;;4997750;28;20026;-66
2023/08/18 00:16:56;;;;;;;6.20;4.05;;;20.80;99.90;;;;;;4997574;28;20027;-66
2023/08/18 00:19:22;;;;;;;8.38;3.85;;;20.80;99.90;;;;;;4997421;28;20062;-66
2023/08/18 00:21:47;;;;;;;5.25;4.00;;;20.80;99.90;;;;;;4997327;28;20057;-66
2023/08/18 00:24:13;;;;;;;5.80;4.40;;;20.80;99.90;;;;;;5013736;28;20073;-66
2023/08/18 00:26:38;;;;;;;5.93;3.88;;;20.80;99.90;;;;;;5015373;28;20019;-66
2023/08/18 00:29:04;;;;;;;4.63;3.85;;;20.80;99.90;;;;;;5016387;28;20023;-66
2023/08/18 00:31:29;;;;;;;6.82;4.00;;;20.90;99.90;;;;;;5000980;28;20022;-66
2023/08/18 00:33:55;;;;;;;6.28;4.53;;;20.90;99.90;;;;;;5000651;28;20027;-66
2023/08/18 00:36:20;;;;;;;9.25;4.45;;;20.90;99.90;;;;;;5016300;28;20060;-66
2023/08/18 00:38:46;;;;;;;7.97;4.25;;;20.90;99.90;;;;;;5000109;28;20029;-66
2023/08/18 00:41:12;;;;;;;8.18;4.55;;;20.80;99.90;;;;;;5016691;28;20173;-66
2023/08/18 00:43:37;;;;;;;8.80;4.38;;;20.70;99.90;;;;;;5000748;28;20033;-66
2023/08/18 00:46:03;;;;;;;6.13;4.32;;;20.60;99.90;;;;;;5016152;28;20026;-66
2023/08/18 00:48:28;;;;;;;5.30;4.47;;;20.60;99.90;;;;;;5016082;28;20046;-66
2023/08/18 00:50:55;;;;;;;6.70;4.43;;;20.50;99.90;;;;;;5000527;28;20032;-66
2023/08/18 00:53:21;;;;;;;6.82;4.55;;;20.60;99.90;;;;;;5000698;28;20025;-66
2023/08/18 00:55:47;;;;;;;11.70;5.18;;;20.60;99.90;;;;;;5000160;28;20121;-66
2023/08/18 00:58:13;;;;;;;6.07;4.75;;;20.60;99.90;;;;;;5000034;28;20089;-66
2023/08/18 01:00:39;;;;;;;6.28;5.25;;;20.50;99.90;;;;;;5015839;28;20026;-66
2023/08/18 01:03:06;;;;;;;8.25;5.22;;;20.40;99.90;;;;;;5015775;28;20038;-66
2023/08/18 01:05:31;;;;;;;8.95;5.47;;;20.40;99.90;;;;;;5016153;28;20019;-66
2023/08/18 01:07:58;;;;;;;10.07;5.13;;;20.40;99.90;;;;;;5000379;28;20021;-66
2023/08/18 01:10:25;;;;;;;11.52;5.20;;;20.30;99.90;;;;;;5000413;28;20031;-66
2023/08/18 01:13:09;;;;;;;7.45;5.70;;;20.30;99.90;;;;;;5016053;28;20026;-66
2023/08/18 01:15:38;;;;;;;9.80;6.10;;;20.30;99.90;;;;;;5015916;28;20026;-66
2023/08/18 01:18:05;;;;;;;12.25;6.72;;;20.20;99.90;;;;;;5015517;28;20061;-66
2023/08/18 01:20:32;;;;;;;10.10;6.70;;;20.20;99.90;;;;;;5015495;28;20065;-66
2023/08/18 01:23:04;;;;;;;9.02;5.93;;;20.30;99.90;;;;;;5015402;28;20094;-66
2023/08/18 01:25:30;;;;;;;9.52;5.93;;;20.40;99.90;;;;;;5016382;28;20026;-66
2023/08/18 01:27:58;;;;;;;13.70;7.20;;;20.40;99.90;;;;;;5015277;28;20023;-66
2023/08/18 01:30:43;;;;;;;15.60;7.15;;;20.40;99.90;;;;;;5015565;28;20022;-66
2023/08/18 01:33:13;;;;;;;11.73;7.72;;;20.40;99.90;;;;;;4999878;28;20027;-66
2023/08/18 01:35:40;;;;;;;10.32;7.28;;;20.40;99.90;;;;;;4999776;28;20030;-66
2023/08/18 01:38:07;;;;;;;10.02;7.53;;;20.50;99.90;;;;;;4999960;28;20026;-66
2023/08/18 01:40:34;;;;;;;11.35;7.15;;;20.40;99.90;;;;;;4998571;28;20125;-66
2023/08/18 01:43:06;;;;;;;10.55;7.68;;;20.50;99.90;;;;;;5015414;28;20033;-66
2023/08/18 01:45:34;;;;;;;18.42;7.95;;;20.50;99.90;;;;;;5015230;28;20057;-66
2023/08/18 01:47:59;;;;;;;12.27;8.38;;;20.30;99.90;;;;;;4999309;28;20057;-66
2023/08/18 01:50:25;;;;;;;12.18;8.52;;;20.40;99.90;;;;;;5014825;28;20018;-66
2023/08/18 01:52:50;;;;;;;16.42;9.55;;;20.40;99.90;;;;;;4999777;28;20030;-66
2023/08/18 01:55:16;;;;;;;15.30;9.27;;;20.30;99.90;;;;;;4999567;28;20026;-66
2023/08/18 01:57:41;;;;;;;14.13;9.73;;;20.20;99.90;;;;;;5015294;28;20034;-66
2023/08/18 02:00:07;;;;;;;16.17;8.45;;;20.20;99.90;;;;;;5014929;28;20030;-66
2023/08/18 02:02:35;;;;;;;14.70;9.25;;;20.40;99.90;;;;;;4999566;28;20062;-66
2023/08/18 02:05:00;;;;;;;15.20;8.65;;;20.40;99.90;;;;;;4999388;28;20025;-66
2023/08/18 02:07:26;;;;;;;14.80;8.57;;;20.40;99.90;;;;;;4998709;28;20026;-66
2023/08/18 02:09:51;;;;;;;13.98;9.00;;;20.30;99.90;;;;;;5014550;28;20026;-66
2023/08/18 02:12:17;;;;;;;12.32;8.05;;;20.40;99.90;;;;;;5014658;28;20037;-66
2023/08/18 02:14:43;;;;;;;16.77;9.40;;;20.30;99.90;;;;;;5014578;28;20125;-66
2023/08/18 02:17:08;;;;;;;15.20;9.13;;;20.30;99.90;;;;;;5014847;28;20062;-66
2023/08/18 02:19:34;;;;;;;14.15;9.68;;;20.30;99.90;;;;;;5015425;28;20026;-66
2023/08/18 02:21:59;;;;;;;15.23;9.85;;;20.20;99.90;;;;;;5014640;28;20033;-66
2023/08/18 02:24:25;;;;;;;11.85;8.52;;;20.20;99.90;;;;;;4998923;28;20089;-66
2023/08/18 02:26:50;;;;;;;14.60;8.70;;;20.30;99.90;;;;;;4997964;28;20018;-66
2023/08/18 02:29:16;;;;;;;17.25;8.57;;;20.30;99.90;;;;;;5015009;28;20022;-66
2023/08/18 02:31:41;;;;;;;14.18;8.70;;;20.40;99.90;;;;;;5014221;28;20029;-66
2023/08/18 02:34:07;;;;;;;16.58;8.73;;;20.40;99.90;;;;;;4998737;28;20030;-66
2023/08/18 02:36:33;;;;;;;14.90;9.20;;;20.40;99.90;;;;;;5014212;28;20030;-66
2023/08/18 02:38:58;;;;;;;14.10;8.82;;;20.40;99.90;;;;;;4999091;28;20126;-66
2023/08/18 02:41:24;;;;;;;15.63;10.07;;;20.30;99.90;;;;;;5015049;28;20038;-67
2023/08/18 02:43:49;;;;;;;21.38;9.88;;;20.30;99.90;;;;;;5014313;28;20061;-67
2023/08/18 02:46:16;;;;;;;15.50;9.77;;;20.20;99.90;;;;;;5013990;28;20037;-67
2023/08/18 02:48:42;;;;;;;15.10;9.23;;;20.20;99.90;;;;;;5013399;28;20054;-67
2023/08/18 02:51:09;;;;;;;20.90;11.57;;;20.20;99.90;;;;;;4998974;28;20058;-67
2023/08/18 02:53:39;;;;;;;18.05;10.55;;;20.00;99.90;;;;;;4998394;28;20053;-67
2023/08/18 02:56:04;;;;;;;15.55;10.65;;;20.00;99.90;;;;;;5014230;28;20028;-67
2023/08/18 02:58:31;;;;;;;15.57;10.48;;;20.00;99.90;;;;;;4997688;28;20030;-67
2023/08/18 03:01:04;;;;;;;17.98;10.00;;;20.10;99.90;;;;;;4998276;28;20023;-67
2023/08/18 03:03:29;;;;;;;17.70;10.43;;;20.20;99.90;;;;;;5013636;28;20030;-67
2023/08/18 03:06:03;;;;;;;17.63;9.95;;;20.20;99.90;;;;;;5013870;28;20033;-67
2023/08/18 03:08:28;;;;;;;18.60;10.85;;;20.20;99.90;;;;;;5013376;28;20113;-67
2023/08/18 03:10:59;;;;;;;20.63;10.32;;;20.20;99.90;;;;;;5013815;28;20061;-67
2023/08/18 03:13:24;;;;;;;17.58;10.70;;;20.20;99.90;;;;;;4998057;28;20045;-67
2023/08/18 03:15:50;;;;;;;15.93;9.48;;;20.20;99.90;;;;;;5013435;28;20033;-67
2023/08/18 03:18:16;;;;;;;16.83;10.05;;;20.20;99.90;;;;;;4997974;28;20086;-67
2023/08/18 03:20:41;;;;;;;22.10;10.25;;;20.20;99.90;;;;;;4997220;28;20058;-67
2023/08/18 03:23:07;;;;;;;19.50;10.98;;;20.20;99.90;;;;;;4997883;28;20030;-67
2023/08/18 03:25:33;;;;;;;21.30;11.18;;;20.20;99.90;;;;;;5013385;28;20065;-67
2023/08/18 03:27:58;;;;;;;17.70;10.07;;;20.30;99.90;;;;;;5013596;28;20072;-67
2023/08/18 03:30:24;;;;;;;17.35;10.02;;;20.40;99.90;;;;;;5013413;28;20113;-67
2023/08/18 03:32:51;;;;;;;19.10;10.57;;;20.40;99.90;;;;;;5013183;28;20082;-67
2023/08/18 03:35:17;;;;;;;18.58;11.18;;;20.30;99.90;;;;;;4997793;28;20022;-67
2023/08/18 03:37:43;;;;;;;20.48;10.88;;;20.20;99.90;;;;;;5013392;28;20030;-67
2023/08/18 03:40:09;;;;;;;19.42;10.23;;;20.20;99.90;;;;;;5013228;28;20045;-67
2023/08/18 03:42:34;;;;;;;19.20;11.05;;;20.10;99.90;;;;;;4996976;28;20029;-67
2023/08/18 03:45:00;;;;;;;27.85;12.60;;;20.10;99.90;;;;;;4997733;28;20022;-67
2023/08/18 03:47:26;;;;;;;22.48;11.88;;;20.10;99.90;;;;;;4997766;28;20097;-67
2023/08/18 03:49:51;;;;;;;17.58;10.85;;;20.20;99.90;;;;;;4997772;28;20030;-67
2023/08/18 03:52:17;;;;;;;16.02;11.05;;;20.30;99.90;;;;;;5013418;28;20022;-67
2023/08/18 03:54:43;;;;;;;18.92;11.93;;;20.20;99.90;;;;;;5012960;28;20034;-67
2023/08/18 03:57:08;;;;;;;25.85;10.98;;;20.30;99.90;;;;;;4997614;28;20061;-67
2023/08/18 03:59:34;;;;;;;19.35;11.80;;;20.20;99.90;;;;;;5013298;28;20093;-67
2023/08/18 04:01:59;;;;;;;20.75;11.50;;;20.20;99.90;;;;;;5016137;28;20026;-67
2023/08/18 04:04:25;;;;;;;17.77;11.80;;;20.30;99.90;;;;;;5000837;28;20077;-67
2023/08/18 04:06:50;;;;;;;23.00;11.45;;;20.30;99.90;;;;;;5001639;28;20053;-67
2023/08/18 04:09:16;;;;;;;24.80;11.98;;;20.20;99.90;;;;;;5016762;28;20022;-67
2023/08/18 04:11:43;;;;;;;24.15;13.13;;;20.10;99.90;;;;;;5016802;28;20018;-67
2023/08/18 04:14:09;;;;;;;23.48;12.07;;;20.10;99.90;;;;;;5001359;28;20030;-67
2023/08/18 04:16:35;;;;;;;22.58;12.27;;;20.00;99.90;;;;;;5001397;28;20027;-67
2023/08/18 04:19:01;;;;;;;26.00;14.10;;;20.20;99.90;;;;;;5016616;28;20026;-67
2023/08/18 04:21:27;;;;;;;25.45;14.35;;;20.10;99.90;;;;;;5001226;28;20087;-67
2023/08/18 04:23:53;;;;;;;23.33;12.85;;;20.10;99.90;;;;;;5016560;28;20035;-67
2023/08/18 04:26:19;;;;;;;22.75;13.00;;;20.10;99.90;;;;;;5017493;28;20045;-67
2023/08/18 04:28:46;;;;;;;19.52;12.13;;;20.20;99.90;;;;;;5001019;28;20023;-67
2023/08/18 04:31:11;;;;;;;23.70;13.35;;;20.20;99.90;;;;;;5016421;28;20034;-67
2023/08/18 04:33:37;;;;;;;22.00;12.07;;;20.30;99.90;;;;;;5016470;28;20034;-67
2023/08/18 04:36:03;;;;;;;22.17;12.90;;;20.30;99.90;;;;;;5017113;28;20058;-67
2023/08/18 04:38:29;;;;;;;23.23;12.10;;;20.30;99.90;;;;;;5001103;28;20080;-67
2023/08/18 04:40:59;;;;;;;22.00;12.30;;;20.20;99.90;;;;;;5000944;28;20164;-67
2023/08/18 04:43:28;;;;;;;21.13;12.38;;;20.30;99.90;;;;;;5016982;28;20026;-67
2023/08/18 04:45:53;;;;;;;20.23;11.57;;;20.40;99.90;;;;;;5016411;28;20040;-67
2023/08/18 04:48:19;;;;;;;20.98;11.80;;;20.30;99.90;;;;;;5016375;28;20031;-67
2023/08/18 04:50:45;;;;;;;18.27;10.85;;;20.30;99.90;;;;;;5016429;28;20030;-67
2023/08/18 04:53:10;;;;;;;20.63;12.38;;;20.20;99.90;;;;;;5016840;28;20053;-68
2023/08/18 04:55:36;;;;;;;19.40;10.98;;;20.10;99.90;;;;;;5001095;28;20034;-67
2023/08/18 04:58:02;;;;;;;19.25;10.85;;;20.20;99.90;;;;;;5015963;28;20036;-67
2023/08/18 05:00:31;;;;;;;18.38;10.82;;;20.30;99.90;;;;;;5000333;28;20030;-67
2023/08/18 05:02:56;;;;;;;23.52;11.80;;;20.20;99.90;;;;;;5000778;28;20049;-67
2023/08/18 05:05:22;;;;;;;15.70;10.30;;;20.20;99.90;;;;;;5015797;28;20030;-68
2023/08/18 05:07:47;;;;;;;15.68;10.02;;;20.30;99.90;;;;;;5000335;28;20018;-67
2023/08/18 05:10:13;;;;;;;18.65;11.52;;;20.30;99.90;;;;;;5000162;28;20044;-67
2023/08/18 05:12:38;;;;;;;19.52;10.60;;;20.20;99.90;;;;;;5015242;28;20034;-68
2023/08/18 05:15:04;;;;;;;17.30;10.68;;;20.20;99.90;;;;;;5000420;28;20101;-67
2023/08/18 05:17:30;;;;;;;19.45;10.60;;;20.20;99.90;;;;;;5000396;28;20048;-67
2023/08/18 05:19:56;;;;;;;17.20;9.75;;;20.20;99.90;;;;;;5016164;28;20026;-67
2023/08/18 05:22:22;;;;;;;15.80;9.70;;;20.30;99.90;;;;;;5015453;28;20022;-67
2023/08/18 05:24:48;;;;;;;15.48;9.90;;;20.30;99.90;;;;;;5015347;28;20143;-67
2023/08/18 05:27:14;;;;;;;18.50;10.93;;;20.40;99.90;;;;;;5015734;28;20030;-67
2023/08/18 05:29:40;;;;;;;17.20;10.90;;;20.40;99.90;;;;;;5015259;28;20022;-67
2023/08/18 05:32:05;;;;;;;19.88;10.93;;;20.40;99.90;;;;;;5015428;28;20073;-67
2023/08/18 05:34:31;;;;;;;17.08;10.00;;;20.40;99.90;;;;;;5015251;28;20023;-67
2023/08/18 05:36:57;;;;;;;16.35;10.52;;;20.40;99.90;;;;;;5015574;28;20029;-66
2023/08/18 05:39:22;;;;;;;16.13;10.25;;;20.40;99.90;;;;;;5015157;28;20034;-66
2023/08/18 05:41:48;;;;;;;15.48;10.57;;;20.30;99.90;;;;;;4999930;28;20037;-66
2023/08/18 05:44:13;;;;;;;16.25;9.23;;;20.30;99.90;;;;;;4998736;28;20022;-66
2023/08/18 05:46:39;;;;;;;14.40;8.80;;;20.30;99.90;;;;;;5015003;28;20022;-66
2023/08/18 05:49:04;;;;;;;13.18;8.45;;;20.40;99.90;;;;;;4999435;28;20018;-66
2023/08/18 05:51:30;;;;;;;12.88;8.15;;;20.50;99.90;;;;;;4999508;28;20057;-66
2023/08/18 05:53:56;;;;;;;12.40;7.85;;;20.50;99.90;;;;;;5014850;28;20080;-66
2023/08/18 05:56:21;;;;;;;13.60;9.23;;;20.60;99.90;;;;;;5014806;28;20117;-66
2023/08/18 05:58:47;;;;;;;12.93;8.27;;;20.50;99.90;;;;;;5014798;28;20026;-66
2023/08/18 06:01:14;;;;;;;13.43;7.97;;;20.60;99.90;;;;;;5015461;28;20041;-66
2023/08/18 06:03:40;;;;;;;18.48;9.77;;;20.60;99.90;;;;;;5014725;28;20031;-66
2023/08/18 06:06:06;;;;;;;22.48;9.73;;;20.60;99.90;;;;;;5015166;28;20022;-66
2023/08/18 06:08:31;;;;;;;25.55;10.30;;;20.70;99.90;;;;;;5014486;28;20029;-66
2023/08/18 06:10:57;;;;;;;16.00;9.10;;;20.60;99.90;;;;;;4999150;28;20018;-66
2023/08/18 06:13:23;;;;;;;14.68;8.95;;;20.60;99.90;;;;;;4999099;28;20030;-66
2023/08/18 06:15:52;;;;;;;12.77;8.68;;;20.70;99.90;;;;;;4998111;28;20027;-67
2023/08/18 06:18:18;;;;;;;13.00;8.88;;;20.70;99.90;;;;;;4999386;28;20018;-66
2023/08/18 06:20:45;;;;;;;16.25;9.55;;;20.60;99.90;;;;;;4997892;28;20057;-66
2023/08/18 06:23:11;;;;;;;13.52;8.18;;;20.70;99.90;;;;;;4998250;28;20092;-67
2023/08/18 06:25:36;;;;;;;10.40;7.60;;;20.70;99.90;;;;;;4998946;28;20022;-67
2023/08/18 06:28:02;;;;;;;13.20;7.70;;;20.80;99.90;;;;;;5014545;28;20045;-67
2023/08/18 06:30:27;;;;;;;9.55;7.35;;;20.80;99.90;;;;;;4998828;28;20058;-67
2023/08/18 06:32:53;;;;;;;14.13;6.70;;;20.70;99.90;;;;;;4998603;28;20065;-66
2023/08/18 06:35:19;;;;;;;11.95;7.38;;;20.70;99.90;;;;;;4997922;28;20117;-67
2023/08/18 06:37:44;;;;;;;9.45;7.07;;;20.90;99.90;;;;;;5014322;28;20073;-66
2023/08/18 06:40:11;;;;;;;8.43;6.20;;;21.00;99.90;;;;;;5014185;28;20030;-67
2023/08/18 06:42:36;;;;;;;8.25;5.85;;;21.00;99.90;;;;;;5014034;28;20077;-66
2023/08/18 06:45:03;;;;;;;8.35;6.03;;;21.10;99.90;;;;;;4997498;28;20026;-66
2023/08/18 06:47:29;;;;;;;7.72;6.03;;;21.20;99.90;;;;;;4998604;28;20026;-66
2023/08/18 06:49:55;;;;;;;12.07;6.45;;;21.20;99.90;;;;;;5013852;28;20025;-66
2023/08/18 06:52:20;;;;;;;7.45;5.88;;;21.30;99.90;;;;;;5013926;28;20031;-67
2023/08/18 06:54:47;;;;;;;9.95;5.47;;;21.20;99.90;;;;;;4999263;28;20027;-66
2023/08/18 06:57:12;;;;;;;9.50;5.53;;;21.30;99.90;;;;;;4998275;28;20034;-66
2023/08/18 06:59:38;;;;;;;11.60;5.60;;;21.20;99.90;;;;;;5014031;28;20030;-66
2023/08/18 07:02:03;;;;;;;10.10;5.55;;;21.30;99.90;;;;;;5013799;28;20049;-66
2023/08/18 07:04:29;;;;;;;8.73;6.32;;;21.40;99.90;;;;;;4998585;28;20084;-67
2023/08/18 07:06:54;;;;;;;7.30;5.88;;;21.50;99.90;;;;;;5014198;28;20113;-66
2023/08/18 07:09:20;;;;;;;9.85;6.13;;;21.50;99.90;;;;;;4998145;28;20033;-67
2023/08/18 07:11:45;;;;;;;7.63;5.93;;;21.60;99.90;;;;;;4997306;28;20098;-67
2023/08/18 07:14:11;;;;;;;10.57;6.65;;;21.70;99.90;;;;;;5014421;28;20113;-66
2023/08/18 07:16:37;;;;;;;8.98;6.47;;;21.70;99.90;;;;;;4998346;28;20026;-67
2023/08/18 07:19:03;;;;;;;7.88;6.03;;;21.70;99.90;;;;;;5013631;28;20022;-67
2023/08/18 07:21:28;;;;;;;8.43;6.78;;;21.80;99.90;;;;;;4998079;28;20045;-66
2023/08/18 07:23:54;;;;;;;10.85;6.68;;;21.80;99.90;;;;;;4997657;28;20027;-67
2023/08/18 07:26:19;;;;;;;11.35;6.53;;;21.90;99.90;;;;;;5013713;28;20072;-66
2023/08/18 07:28:45;;;;;;;11.73;7.10;;;22.00;99.90;;;;;;5013360;28;20034;-67
2023/08/18 07:31:11;;;;;;;9.95;6.30;;;22.00;99.90;;;;;;5013362;28;20088;-67
2023/08/18 07:33:36;;;;;;;8.48;6.30;;;22.00;99.90;;;;;;5013399;28;20030;-66
2023/08/18 07:36:02;;;;;;;7.50;5.50;;;22.00;99.90;;;;;;5013216;28;20081;-67
2023/08/18 07:38:30;;;;;;;7.90;6.13;;;22.00;99.90;;;;;;5014009;28;20030;-67
2023/08/18 07:40:55;;;;;;;8.45;5.32;;;22.10;99.90;;;;;;5013901;28;20060;-66
2023/08/18 07:43:21;;;;;;;10.85;5.43;;;22.10;99.90;;;;;;5013175;28;20098;-66
2023/08/18 07:45:46;;;;;;;11.15;6.22;;;22.10;99.90;;;;;;4998207;28;20019;-66
2023/08/18 07:48:12;;;;;;;9.90;5.78;;;22.20;99.90;;;;;;5013321;28;20053;-66
2023/08/18 07:50:40;;;;;;;8.00;5.78;;;22.30;99.90;;;;;;4997633;28;20052;-65
2023/08/18 07:53:06;;;;;;;9.02;5.80;;;22.40;99.90;;;;;;5013416;28;20030;-66
2023/08/18 07:55:31;;;;;;;7.60;5.68;;;22.40;99.90;;;;;;4997850;28;20057;-67
2023/08/18 07:57:57;;;;;;;7.63;5.32;;;22.40;99.90;;;;;;4998082;28;20038;-66
2023/08/18 08:00:22;;;;;;;11.02;6.28;;;22.40;99.90;;;;;;5012821;28;20031;-66
2023/08/18 08:02:49;;;;;;;8.23;5.38;;;22.60;99.90;;;;;;5013778;28;20031;-67
2023/08/18 08:05:19;;;;;;;9.88;5.72;;;22.50;99.90;;;;;;4997432;28;20022;-66
2023/08/18 08:07:45;;;;;;;7.30;5.20;;;22.60;99.90;;;;;;4997836;28;20118;-67
2023/08/18 08:10:11;;;;;;;6.55;5.28;;;22.70;99.90;;;;;;4997318;28;20019;-66
2023/08/18 08:12:38;;;;;;;5.95;5.18;;;22.70;99.90;;;;;;4997684;28;20031;-66
2023/08/18 08:15:05;;;;;;;12.40;5.55;;;22.80;99.90;;;;;;5013643;28;20033;-66
2023/08/18 08:17:32;;;;;;;6.43;5.03;;;22.80;99.90;;;;;;4997311;28;20022;-66
2023/08/18 08:20:00;;;;;;;6.25;4.82;;;22.90;99.90;;;;;;4996345;28;20031;-66
2023/08/18 08:22:25;;;;;;;5.47;4.85;;;23.00;99.90;;;;;;5012721;28;20030;-66
2023/08/18 08:24:54;;;;;;;8.95;5.18;;;23.10;99.90;;;;;;4997208;28;20022;-66
2023/08/18 08:27:20;;;;;;;7.10;5.18;;;23.10;99.90;;;;;;5012729;28;20053;-66
2023/08/18 08:29:46;;;;;;;7.10;5.32;;;23.10;99.90;;;;;;5012865;28;20100;-66
2023/08/18 08:32:11;;;;;;;8.15;5.30;;;23.20;99.90;;;;;;5012924;28;20022;-66
2023/08/18 08:34:39;;;;;;;5.72;4.97;;;23.20;99.90;;;;;;4997369;28;20023;-67
2023/08/18 08:37:05;;;;;;;6.18;4.78;;;23.30;99.90;;;;;;4997298;28;20022;-66
2023/08/18 08:39:31;;;;;;;8.68;4.97;;;23.30;99.90;;;;;;4997016;28;20038;-66
2023/08/18 08:41:57;;;;;;;6.00;4.75;;;23.30;99.90;;;;;;4998244;28;20023;-68
2023/08/18 08:44:23;;;;;;;10.20;5.43;;;23.40;99.90;;;;;;5012528;28;20033;-68
2023/08/18 08:46:49;;;;;;;8.63;5.10;;;23.50;99.90;;;;;;5013848;28;20022;-68
2023/08/18 08:49:15;;;;;;;6.78;4.65;;;23.60;99.90;;;;;;5017049;28;20030;-68
2023/08/18 08:51:44;;;;;;;6.32;5.38;;;23.70;99.90;;;;;;5016328;28;20029;-68
2023/08/18 08:54:11;;;;;;;5.13;4.63;;;23.80;99.90;;;;;;5000957;28;20096;-68
2023/08/18 08:56:37;;;;;;;5.70;4.32;;;23.80;99.90;;;;;;5000570;28;20034;-68
2023/08/18 08:59:03;;;;;;;6.38;4.28;;;24.10;99.90;;;;;;4999555;28;20039;-68
2023/08/18 09:01:29;;;;;;;6.50;5.28;;;24.20;99.90;;;;;;5015925;28;20077;-68
2023/08/18 09:03:56;;;;;;;5.60;4.82;;;24.30;99.90;;;;;;5016661;28;20030;-68
2023/08/18 09:06:22;;;;;;;5.22;4.32;;;24.40;99.90;;;;;;5015871;28;20048;-68
2023/08/18 09:08:47;;;;;;;8.15;4.32;;;24.50;99.90;;;;;;5000614;28;20031;-68
2023/08/18 09:11:13;;;;;;;5.03;4.05;;;24.50;99.90;;;;;;5016051;28;20049;-68
2023/08/18 09:13:40;;;;;;;5.10;4.20;;;24.50;99.90;;;;;;5015647;28;20027;-68
2023/08/18 09:16:06;;;;;;;8.32;4.70;;;24.60;99.90;;;;;;5016390;28;20030;-68
2023/08/18 09:18:33;;;;;;;8.90;4.50;;;24.60;99.90;;;;;;5015527;28;20025;-68
2023/08/18 09:21:06;;;;;;;6.47;4.13;;;24.70;99.90;;;;;;5016034;28;20031;-68
2023/08/18 09:23:32;;;;;;;5.95;3.70;;;25.00;99.90;;;;;;5015530;28;20033;-68
2023/08/18 09:25:58;;;;;;;9.55;3.78;;;25.10;99.90;;;;;;5015536;28;20022;-67
2023/08/18 09:28:24;;;;;;;5.70;3.92;;;25.30;99.90;;;;;;5000125;28;20058;-68
2023/08/18 09:30:50;;;;;;;4.93;3.78;;;25.40;99.90;;;;;;5015283;28;20022;-68
2023/08/18 09:33:16;;;;;;;4.60;3.97;;;25.40;99.90;;;;;;5000440;28;20026;-68
2023/08/18 09:35:42;;;;;;;4.57;3.55;;;25.50;99.90;;;;;;5000180;28;20057;-68
2023/08/18 09:38:13;;;;;;;5.10;3.92;;;25.70;99.90;;;;;;5015368;28;20029;-68
2023/08/18 09:40:39;;;;;;;4.22;3.83;;;25.80;99.90;;;;;;4999720;28;20026;-68
2023/08/18 09:43:04;;;;;;;4.85;3.58;;;26.00;99.90;;;;;;5000015;28;20033;-68
2023/08/18 09:45:32;;;;;;;7.35;3.88;;;26.10;99.90;;;;;;5015549;28;20022;-68
2023/08/18 09:47:59;;;;;;;3.65;3.25;;;26.20;99.90;;;;;;4999683;28;20022;-68
2023/08/18 09:50:29;;;;;;;5.28;3.72;;;26.40;99.90;;;;;;5015232;28;20033;-68
2023/08/18 09:52:57;;;;;;;4.22;3.40;;;26.40;99.90;;;;;;5015471;28;20030;-68
2023/08/18 09:55:33;;;;;;;6.80;3.38;;;26.50;99.90;;;;;;4999622;28;20065;-68
2023/08/18 09:58:09;;;;;;;6.35;3.40;;;26.60;99.90;;;;;;5014013;28;20049;-68
2023/08/18 10:00:39;;;;;;;5.88;3.42;;;26.60;99.90;;;;;;4999714;28;20120;-68
2023/08/18 10:03:08;;;;;;;5.93;3.40;;;26.60;99.90;;;;;;5014835;28;20026;-68
2023/08/18 10:05:34;;;;;;;6.82;3.50;;;26.70;99.90;;;;;;4999580;28;20023;-68
2023/08/18 10:08:02;;;;;;;4.10;3.17;;;26.90;99.90;;;;;;4998953;28;20049;-68
2023/08/18 10:10:28;;;;;;;9.68;3.47;;;27.00;99.90;;;;;;4999084;28;20025;-68
2023/08/18 10:12:54;;;;;;;4.47;3.05;;;27.20;99.90;;;;;;5014652;28;20125;-68
2023/08/18 10:15:20;;;;;;;5.72;2.78;;;27.30;99.90;;;;;;5014564;28;20027;-68
2023/08/18 10:17:46;;;;;;;4.22;3.22;;;27.20;99.90;;;;;;4999306;28;20022;-68
2023/08/18 10:20:12;;;;;;;4.82;2.60;;;27.20;99.90;;;;;;5014451;28;20050;-68
2023/08/18 10:22:38;;;;;;;5.40;2.97;;;27.20;99.90;;;;;;4998851;28;20022;-68
2023/08/18 10:25:06;;;;;;;8.32;3.60;;;27.40;99.90;;;;;;5014725;28;20030;-68
2023/08/18 10:27:40;;;;;;;6.43;3.38;;;27.50;99.90;;;;;;4998076;28;20033;-68
2023/08/18 10:30:10;;;;;;;7.28;3.35;;;27.90;99.90;;;;;;5014236;28;20053;-68
2023/08/18 10:32:35;;;;;;;5.03;3.20;;;28.10;99.90;;;;;;4998950;28;20018;-67
2023/08/18 10:35:21;;;;;;;5.80;3.10;;;28.50;99.90;;;;;;5014093;28;20080;-68
2023/08/18 10:37:50;;;;;;;11.82;3.42;;;28.70;99.90;;;;;;4998732;28;20027;-68
2023/08/18 10:40:29;;;;;;;4.43;3.00;;;29.00;99.90;;;;;;5014417;28;20091;-68
2023/08/18 10:43:12;;;;;;;2.95;2.70;;;29.20;99.90;;;;;;4998508;28;20033;-68
2023/08/18 10:45:40;;;;;;;4.28;3.15;;;29.50;99.90;;;;;;5014019;28;20054;-68
2023/08/18 10:48:06;;;;;;;6.35;3.05;;;29.70;99.90;;;;;;5014314;28;20023;-68
2023/08/18 10:50:39;;;;;;;5.55;2.78;;;29.70;99.90;;;;;;5013955;28;20094;-68
2023/08/18 10:53:04;;;;;;;4.07;2.92;;;29.70;99.90;;;;;;5014321;28;20125;-68
2023/08/18 10:55:31;;;;;;;8.18;3.63;;;30.00;99.90;;;;;;5014973;28;20108;-68
2023/08/18 10:57:56;;;;;;;5.50;3.20;;;29.90;99.90;;;;;;5014054;28;20049;-68
2023/08/18 11:00:22;;;;;;;4.00;3.00;;;29.90;99.90;;;;;;5014024;28;20018;-68
2023/08/18 11:02:50;;;;;;;4.70;2.47;;;29.80;99.90;;;;;;5013855;28;20121;-68
2023/08/18 11:05:20;;;;;;;5.75;2.75;;;30.10;99.90;;;;;;4998318;28;20090;-68
2023/08/18 11:07:46;;;;;;;5.22;3.08;;;30.30;99.90;;;;;;4998361;28;20081;-68
2023/08/18 11:10:22;;;;;;;3.13;2.78;;;30.20;99.90;;;;;;4997205;28;20109;-68
2023/08/18 11:12:50;;;;;;;3.20;2.58;;;30.40;99.90;;;;;;4997107;28;20026;-68
2023/08/18 11:15:18;;;;;;;3.75;2.47;;;30.60;99.90;;;;;;5013483;28;20026;-68
2023/08/18 11:17:44;;;;;;;3.92;2.70;;;30.70;99.90;;;;;;4997996;28;20030;-68
2023/08/18 11:20:16;;;;;;;4.43;2.63;;;31.00;99.90;;;;;;4997990;28;20037;-68
2023/08/18 11:22:44;;;;;;;3.05;2.20;;;31.40;99.90;;;;;;5014282;28;20054;-68
2023/08/18 11:25:14;;;;;;;3.45;2.88;;;31.40;99.90;;;;;;4997937;28;20030;-68
2023/08/18 11:27:41;;;;;;;6.15;2.85;;;31.10;99.90;;;;;;4997947;28;20030;-68
2023/08/18 11:30:12;;;;;;;8.93;3.03;;;31.10;99.90;;;;;;4998280;28;20141;-68
2023/08/18 11:32:38;;;;;;;;;;;31.20;99.90;;;;;;4998833;28;20057;-68
2023/08/18 11:35:07;;;;;;;7.35;3.00;;;31.40;99.90;;;;;;4996927;28;19963;-68
2023/08/18 11:37:43;;;;;;;4.47;2.72;;;31.50;99.90;;;;;;4997991;28;20033;-69
2023/08/18 11:40:10;;;;;;;3.70;2.72;;;31.80;99.90;;;;;;4997795;28;20030;-68
2023/08/18 11:42:41;;;;;;;5.68;2.80;;;32.30;99.90;;;;;;5013062;28;20094;-68
2023/08/18 11:45:09;;;;;;;3.78;2.40;;;33.40;99.90;;;;;;5013218;28;20022;-69
2023/08/18 11:47:36;;;;;;;6.20;2.67;;;34.70;99.90;;;;;;5013559;28;20118;-68
2023/08/18 11:50:06;;;;;;;6.00;2.50;;;35.00;99.90;;;;;;4997847;28;20029;-68
2023/08/18 11:52:51;;;;;;;3.05;2.72;;;34.70;99.90;;;;;;4997944;28;20045;-68
2023/08/18 11:55:34;;;;;;;4.20;2.47;;;34.70;99.90;;;;;;4997646;28;20032;-68
2023/08/18 11:58:10;;;;;;;2.78;2.58;;;33.30;99.90;;;;;;5014143;28;20034;-68
2023/08/18 12:00:37;;;;;;;5.00;2.65;;;33.10;99.90;;;;;;4998008;28;20022;-68
2023/08/18 12:03:04;;;;;;;3.70;2.85;;;32.80;99.90;;;;;;4997504;28;20117;-67
2023/08/18 12:05:30;;;;;;;4.95;2.63;;;32.80;99.90;;;;;;4997611;28;20023;-68
2023/08/18 12:07:59;;;;;;;4.55;2.47;;;33.10;99.90;;;;;;4997366;28;20098;-68
2023/08/18 12:10:24;;;;;;;6.07;2.50;;;33.30;99.90;;;;;;5012788;28;20027;-67
2023/08/18 12:12:54;;;;;;;4.55;2.40;;;34.50;99.90;;;;;;5012836;28;20084;-67
2023/08/18 12:15:21;;;;;;;5.13;2.30;;;34.90;99.90;;;;;;4997399;28;20132;-67
2023/08/18 12:17:47;;;;;;;4.93;2.40;;;34.20;99.90;;;;;;5013049;28;20026;-67
2023/08/18 12:20:13;;;;;;;5.50;3.00;;;34.70;99.90;;;;;;4997358;28;20018;-67
2023/08/18 12:22:39;;;;;;;5.07;2.75;;;36.00;99.90;;;;;;4999890;28;20038;-67
2023/08/18 12:25:05;;;;;;;2.80;2.55;;;35.80;99.90;;;;;;5001127;28;20018;-67
2023/08/18 12:27:33;;;;;;;3.13;2.30;;;36.70;99.90;;;;;;5016621;28;20026;-67
2023/08/18 12:30:03;;;;;;;3.97;2.40;;;36.60;99.90;;;;;;5016459;28;20022;-66
2023/08/18 12:32:30;;;;;;;4.00;2.38;;;35.30;99.90;;;;;;5016959;28;20113;-66
2023/08/18 12:34:57;;;;;;;5.43;2.80;;;34.70;99.90;;;;;;5000984;28;20026;-66
2023/08/18 12:37:23;;;;;;;3.13;2.60;;;34.00;99.90;;;;;;5017334;28;20031;-66
2023/08/18 12:39:49;;;;;;;3.95;2.50;;;34.10;99.90;;;;;;5000696;28;20035;-67